createdAt,value
2023-06-19T04:00:32.894Z,263.00
2023-06-19T04:01:33.888Z,265.00
2023-06-19T04:02:33.876Z,264.00
2023-06-19T04:03:33.878Z,267.00
2023-06-19T04:04:33.823Z,271.00
2023-06-19T04:05:33.817Z,283.00
2023-06-19T04:06:33.809Z,295.00
2023-06-19T04:07:33.804Z,310.00
2023-06-19T04:08:33.775Z,325.00
2023-06-19T04:09:33.761Z,346.00
2023-06-19T04:10:36.087Z,349.00
2023-06-19T04:11:33.738Z,350.00
2023-06-19T04:12:33.761Z,347.00
2023-06-19T04:13:33.717Z,351.00
2023-06-19T04:14:33.718Z,357.00
2023-06-19T04:15:33.765Z,350.00
2023-06-19T04:16:33.726Z,351.00
2023-06-19T04:17:33.708Z,364.00
2023-06-19T04:18:33.678Z,369.00
2023-06-19T04:19:33.674Z,374.00
2023-06-19T04:20:33.663Z,371.00
2023-06-19T04:21:33.641Z,378.00
2023-06-19T04:22:33.631Z,387.00
2023-06-19T04:23:33.606Z,400.00
2023-06-19T04:24:33.656Z,419.00
2023-06-19T04:25:33.594Z,443.00
2023-06-19T04:26:33.593Z,458.00
2023-06-19T04:27:33.575Z,472.00
2023-06-19T04:28:33.580Z,490.00
2023-06-19T04:29:33.555Z,507.00
2023-06-19T04:30:33.549Z,524.00
2023-06-19T04:31:33.523Z,527.00
2023-06-19T04:32:33.730Z,528.00
2023-06-19T04:33:33.733Z,530.00
2023-06-19T04:34:33.491Z,532.00
2023-06-19T04:35:33.490Z,535.00
2023-06-19T04:36:33.482Z,537.00
2023-06-19T04:37:33.466Z,535.00
2023-06-19T04:38:33.453Z,536.00
2023-06-19T04:39:33.464Z,524.00
2023-06-19T04:40:33.444Z,510.00
2023-06-19T04:41:33.420Z,473.00
2023-06-19T04:42:33.410Z,439.00
2023-06-19T04:43:33.424Z,419.00
2023-06-19T04:44:33.382Z,413.00
2023-06-19T04:45:33.395Z,407.00
2023-06-19T04:46:33.415Z,401.00
2023-06-19T04:47:47.943Z,398.00
2023-06-19T04:48:33.380Z,379.00
2023-06-19T04:49:33.338Z,378.00
2023-06-19T04:50:33.327Z,379.00
2023-06-19T04:51:33.308Z,382.00
2023-06-19T04:52:33.295Z,383.00
2023-06-19T04:53:33.283Z,384.00
2023-06-19T04:54:33.280Z,384.00
2023-06-19T04:55:33.262Z,386.00
2023-06-19T04:56:33.250Z,383.00
2023-06-19T04:57:33.276Z,387.00
2023-06-19T04:58:33.232Z,392.00
2023-06-19T04:59:33.214Z,392.00
2023-06-19T05:00:33.223Z,398.00
2023-06-19T05:01:33.220Z,416.00
2023-06-19T05:02:33.245Z,438.00
2023-06-19T05:03:33.178Z,462.00
2023-06-19T05:04:33.219Z,468.00
2023-06-19T05:05:33.175Z,461.00
2023-06-19T05:06:33.140Z,466.00
2023-06-19T05:07:33.154Z,477.00
2023-06-19T05:08:33.127Z,495.00
2023-06-19T05:09:33.109Z,514.00
2023-06-19T05:10:33.112Z,535.00
2023-06-19T05:11:33.101Z,546.00
2023-06-19T05:12:33.082Z,566.00
2023-06-19T05:13:33.070Z,575.00
2023-06-19T05:14:33.090Z,593.00
2023-06-19T05:15:33.061Z,591.00
2023-06-19T05:16:35.137Z,604.00
2023-06-19T05:17:33.100Z,614.00
2023-06-19T05:18:33.048Z,628.00
2023-06-19T05:19:33.020Z,629.00
2023-06-19T05:20:33.013Z,630.00
2023-06-19T05:21:33.016Z,626.00
2023-06-19T05:22:32.995Z,616.00
2023-06-19T05:23:32.957Z,603.00
2023-06-19T05:24:33.001Z,595.00
2023-06-19T05:25:32.937Z,598.00
2023-06-19T05:26:32.946Z,614.00
2023-06-19T05:27:32.934Z,641.00
2023-06-19T05:28:32.914Z,677.00
2023-06-19T05:29:32.918Z,692.00
2023-06-19T05:30:32.896Z,714.00
2023-06-19T05:31:32.889Z,731.00
2023-06-19T05:32:32.947Z,739.00
2023-06-19T05:33:32.869Z,736.00
2023-06-19T05:34:32.856Z,738.00
2023-06-19T05:35:32.841Z,741.00
2023-06-19T05:36:32.841Z,746.00
2023-06-19T05:37:32.841Z,759.00
2023-06-19T05:38:32.831Z,762.00
2023-06-19T05:39:32.802Z,775.00
2023-06-19T05:40:32.799Z,771.00
2023-06-19T05:41:32.779Z,768.00
2023-06-19T05:42:32.797Z,764.00
2023-06-19T05:43:32.747Z,767.00
2023-06-19T05:44:32.733Z,747.00
2023-06-19T05:45:32.765Z,742.00
2023-06-19T05:46:32.731Z,749.00
2023-06-19T05:47:32.744Z,744.00
2023-06-19T05:48:32.708Z,769.00
2023-06-19T05:49:32.690Z,818.00
2023-06-19T05:50:32.679Z,912.00
2023-06-19T05:51:32.681Z,994.00
2023-06-19T05:52:32.658Z,1050.00
2023-06-19T05:53:32.638Z,1054.00
2023-06-19T05:54:32.627Z,1008.00
2023-06-19T05:55:32.671Z,947.00
2023-06-19T05:56:32.626Z,885.00
2023-06-19T05:57:32.598Z,869.00
2023-06-19T05:58:32.592Z,888.00
2023-06-19T05:59:32.571Z,917.00
2023-06-19T06:00:32.592Z,924.00
2023-06-19T06:01:32.673Z,916.00
2023-06-19T06:02:32.580Z,878.00
2023-06-19T06:03:32.540Z,854.00
2023-06-19T06:04:32.598Z,862.00
2023-06-19T06:05:32.508Z,902.00
2023-06-19T06:06:32.518Z,928.00
2023-06-19T06:07:33.450Z,923.00
2023-06-19T06:08:32.484Z,880.00
2023-06-19T06:09:32.456Z,833.00
2023-06-19T06:10:32.460Z,808.00
2023-06-19T06:11:32.449Z,793.00
2023-06-19T06:12:32.427Z,786.00
2023-06-19T06:13:32.422Z,783.00
2023-06-19T06:14:32.418Z,790.00
2023-06-19T06:15:32.403Z,807.00
2023-06-19T06:16:32.477Z,841.00
2023-06-19T06:17:32.418Z,862.00
2023-06-19T06:18:32.371Z,881.00
2023-06-19T06:19:33.199Z,881.00
2023-06-19T06:20:32.352Z,907.00
2023-06-19T06:21:32.344Z,945.00
2023-06-19T06:22:32.350Z,984.00
2023-06-19T06:23:32.300Z,1011.00
2023-06-19T06:24:32.326Z,1024.00
2023-06-19T06:25:32.301Z,1045.00
2023-06-19T06:26:32.306Z,1073.00
2023-06-19T06:27:32.281Z,1105.00
2023-06-19T06:28:32.268Z,1118.00
2023-06-19T06:29:32.233Z,1140.00
2023-06-19T06:30:32.232Z,1148.00
2023-06-19T06:31:32.239Z,1158.00
2023-06-19T06:32:32.339Z,1185.00
2023-06-19T06:33:32.192Z,1207.00
2023-06-19T06:34:32.310Z,1246.00
2023-06-19T06:35:32.194Z,1281.00
2023-06-19T06:37:32.156Z,1298.00
2023-06-19T06:38:32.155Z,1313.00
2023-06-19T06:39:32.120Z,1311.00
2023-06-19T06:40:32.122Z,1333.00
2023-06-19T06:41:32.110Z,1336.00
2023-06-19T06:42:32.111Z,1310.00
2023-06-19T06:43:32.126Z,1242.00
2023-06-19T06:44:32.129Z,1145.00
2023-06-19T06:45:32.090Z,1111.00
2023-06-19T06:46:32.122Z,1098.00
2023-06-19T06:47:32.222Z,1110.00
2023-06-19T06:48:32.142Z,1105.00
2023-06-19T06:49:32.066Z,1072.00
2023-06-19T06:50:32.017Z,1038.00
2023-06-19T06:51:32.015Z,1010.00
2023-06-19T06:52:31.986Z,1014.00
2023-06-19T06:53:31.980Z,1037.00
2023-06-19T06:54:31.981Z,1074.00
2023-06-19T06:55:32.054Z,1081.00
2023-06-19T06:56:32.005Z,1076.00
2023-06-19T06:57:31.971Z,1075.00
2023-06-19T06:58:32.016Z,1088.00
2023-06-19T06:59:31.948Z,1116.00
2023-06-19T07:00:31.968Z,1142.00
2023-06-19T07:01:31.949Z,1184.00
2023-06-19T07:02:31.960Z,1216.00
2023-06-19T07:03:31.910Z,1249.00
2023-06-19T07:04:31.859Z,1290.00
2023-06-19T07:05:31.866Z,1323.00
2023-06-19T07:06:31.859Z,1369.00
2023-06-19T07:07:31.814Z,1411.00
2023-06-19T07:08:31.810Z,1449.00
2023-06-19T07:09:31.796Z,1463.00
2023-06-19T07:10:32.386Z,1482.00
2023-06-19T07:11:31.785Z,1491.00
2023-06-19T07:12:31.782Z,1503.00
2023-06-19T07:13:31.787Z,1537.00
2023-06-19T07:14:31.768Z,1587.00
2023-06-19T07:15:31.724Z,1645.00
2023-06-19T07:16:31.796Z,1698.00
2023-06-19T07:17:31.750Z,1732.00
2023-06-19T07:18:31.720Z,1760.00
2023-06-19T07:19:31.738Z,1799.00
2023-06-19T07:20:31.694Z,1832.00
2023-06-19T07:21:31.682Z,1891.00
2023-06-19T07:22:31.665Z,1942.00
2023-06-19T07:23:31.658Z,1982.00
2023-06-19T07:24:31.703Z,1985.00
2023-06-19T07:25:31.650Z,1987.00
2023-06-19T07:26:31.630Z,1981.00
2023-06-19T07:27:31.620Z,1998.00
2023-06-19T07:28:31.593Z,2043.00
2023-06-19T07:29:31.598Z,2094.00
2023-06-19T07:30:31.581Z,2116.00
2023-06-19T07:31:31.581Z,2110.00
2023-06-19T07:32:31.691Z,2100.00
2023-06-19T07:33:31.545Z,2090.00
2023-06-19T07:37:28.598Z,2228.00
2023-06-19T07:38:29.580Z,2238.00
2023-06-19T07:39:29.638Z,2220.00
2023-06-19T07:40:29.614Z,2216.00
2023-06-19T07:41:29.537Z,2262.00
2023-06-19T07:42:29.547Z,2315.00
2023-06-19T07:43:29.515Z,2360.00
2023-06-19T07:44:29.507Z,2408.00
2023-06-19T07:45:29.486Z,2431.00
2023-06-19T07:46:29.540Z,2472.00
2023-06-19T07:47:29.518Z,2539.00
2023-06-19T07:48:29.459Z,2590.00
2023-06-19T07:49:29.456Z,2742.00
2023-06-19T07:50:29.685Z,2799.00
2023-06-19T07:51:29.446Z,2819.00
2023-06-19T07:52:29.446Z,2795.00
2023-06-19T07:53:29.508Z,2768.00
2023-06-19T07:54:29.411Z,2732.00
2023-06-19T07:55:29.391Z,2698.00
2023-06-19T07:56:29.375Z,2686.00
2023-06-19T07:57:29.371Z,2686.00
2023-06-19T07:58:29.359Z,2708.00
2023-06-19T07:59:29.395Z,2724.00
2023-06-19T08:00:29.379Z,2752.00
2023-06-19T08:01:29.333Z,2737.00
2023-06-19T08:02:29.728Z,2681.00
2023-06-19T08:03:29.412Z,2610.00
2023-06-19T08:04:29.314Z,2555.00
2023-06-19T08:05:29.281Z,2518.00
2023-06-19T08:06:29.260Z,2485.00
2023-06-19T08:07:29.251Z,2430.00
2023-06-19T08:08:29.251Z,2359.00
2023-06-19T08:09:29.249Z,2289.00
2023-06-19T08:10:29.538Z,2218.00
2023-06-19T08:11:29.276Z,2199.00
2023-06-19T08:12:29.216Z,2246.00
2023-06-19T08:13:29.199Z,2287.00
2023-06-19T08:14:29.179Z,2306.00
2023-06-19T08:15:29.167Z,2209.00
2023-06-19T08:16:29.219Z,2081.00
2023-06-19T08:17:29.164Z,2020.00
2023-06-19T08:18:29.299Z,1978.00
2023-06-19T08:19:29.117Z,1966.00
2023-06-19T08:20:29.384Z,1962.00
2023-06-19T08:21:29.131Z,1959.00
2023-06-19T08:22:29.163Z,1981.00
2023-06-19T08:23:29.728Z,1957.00
2023-06-19T08:24:29.100Z,1938.00
2023-06-19T08:25:29.065Z,1919.00
2023-06-19T08:26:29.074Z,1897.00
2023-06-19T08:27:29.042Z,1864.00
2023-06-19T08:28:29.064Z,1827.00
2023-06-19T08:29:29.009Z,1771.00
2023-06-19T08:30:29.194Z,1731.00
2023-06-19T08:31:28.995Z,1700.00
2023-06-19T08:32:29.007Z,1705.00
2023-06-19T08:33:29.043Z,1723.00
2023-06-19T08:34:28.969Z,1755.00
2023-06-19T08:35:28.974Z,1773.00
2023-06-19T08:36:28.948Z,1802.00
2023-06-19T08:37:28.919Z,1813.00
2023-06-19T08:38:28.970Z,1804.00
2023-06-19T08:39:28.918Z,1794.00
2023-06-19T08:40:29.100Z,1763.00
2023-06-19T08:41:28.881Z,1762.00
2023-06-19T08:42:28.926Z,1792.00
2023-06-19T08:43:28.948Z,1853.00
2023-06-19T08:44:28.968Z,1921.00
2023-06-19T08:45:28.928Z,2016.00
2023-06-19T08:46:28.904Z,2128.00
2023-06-19T08:47:28.848Z,2231.00
2023-06-19T08:48:28.858Z,2327.00
2023-06-19T08:49:28.869Z,2410.00
2023-06-19T08:50:28.812Z,2467.00
2023-06-19T08:51:28.872Z,2524.00
2023-06-19T08:52:28.826Z,2553.00
2023-06-19T08:53:28.930Z,2574.00
2023-06-19T08:54:28.884Z,2601.00
2023-06-19T08:55:28.854Z,2605.00
2023-06-19T08:56:29.371Z,2626.00
2023-06-19T08:57:28.922Z,2625.00
2023-06-19T08:58:28.772Z,2676.00
2023-06-19T08:59:28.757Z,2710.00
2023-06-19T09:00:29.203Z,2761.00
2023-06-19T09:01:28.673Z,2784.00
2023-06-19T09:02:28.759Z,2790.00
2023-06-19T09:03:28.761Z,2822.00
2023-06-19T09:04:28.688Z,2786.00
2023-06-19T09:05:28.666Z,2710.00
2023-06-19T09:06:28.738Z,2640.00
2023-06-19T09:07:28.696Z,2648.00
2023-06-19T09:08:28.631Z,2532.00
2023-06-19T09:09:28.633Z,2419.00
2023-06-19T09:10:28.574Z,2300.00
2023-06-19T09:11:28.579Z,2215.00
2023-06-19T09:12:28.543Z,2148.00
2023-06-19T09:13:28.562Z,2105.00
2023-06-19T09:14:28.531Z,2054.00
2023-06-19T09:15:28.560Z,2062.00
2023-06-19T09:16:28.503Z,2056.00
2023-06-19T09:17:28.520Z,2058.00
2023-06-19T09:18:28.482Z,2101.00
2023-06-19T09:19:28.470Z,2137.00
2023-06-19T09:20:28.563Z,2148.00
2023-06-19T09:21:28.971Z,2128.00
2023-06-19T09:22:29.279Z,2077.00
2023-06-19T09:23:28.423Z,2023.00
2023-06-19T09:24:28.493Z,1960.00
2023-06-19T09:25:28.420Z,1894.00
2023-06-19T09:26:28.507Z,1832.00
2023-06-19T09:27:28.384Z,1773.00
2023-06-19T09:28:28.376Z,1738.00
2023-06-19T09:29:28.369Z,1735.00
2023-06-19T09:30:28.386Z,1757.00
2023-06-19T09:31:29.350Z,1817.00
2023-06-19T09:32:28.400Z,1888.00
2023-06-19T09:33:28.392Z,1934.00
2023-06-19T09:34:28.544Z,2024.00
2023-06-19T09:35:28.404Z,2121.00
2023-06-19T09:36:28.296Z,2229.00
2023-06-19T09:37:28.285Z,2294.00
2023-06-19T09:38:28.277Z,2315.00
2023-06-19T09:39:28.302Z,2350.00
2023-06-19T09:40:28.251Z,2341.00
2023-06-19T09:41:28.259Z,2328.00
2023-06-19T09:42:28.219Z,2311.00
2023-06-19T09:43:28.200Z,2265.00
2023-06-19T09:44:28.200Z,2240.00
2023-06-19T09:45:28.190Z,2240.00
2023-06-19T09:46:28.202Z,2267.00
2023-06-19T09:47:28.302Z,2306.00
2023-06-19T09:48:28.158Z,2357.00
2023-06-19T09:49:28.155Z,2394.00
2023-06-19T09:50:28.141Z,2386.00
2023-06-19T09:51:28.151Z,2336.00
2023-06-19T09:52:28.122Z,2270.00
2023-06-19T09:53:28.099Z,2212.00
2023-06-19T09:54:28.088Z,2194.00
2023-06-19T09:55:28.072Z,2182.00
2023-06-19T09:56:28.110Z,2209.00
2023-06-19T09:57:28.075Z,2264.00
2023-06-19T09:58:28.048Z,2343.00
2023-06-19T09:59:28.036Z,2408.00
2023-06-19T10:00:28.180Z,2488.00
2023-06-19T10:01:28.044Z,2552.00
2023-06-19T10:02:28.100Z,2592.00
2023-06-19T10:03:28.108Z,2625.00
2023-06-19T10:04:28.033Z,2605.00
2023-06-19T10:05:28.032Z,2539.00
2023-06-19T10:06:28.120Z,2441.00
2023-06-19T10:07:27.957Z,2336.00
2023-06-19T10:08:27.941Z,2244.00
2023-06-19T10:09:27.934Z,2170.00
2023-06-19T10:10:29.579Z,2117.00
2023-06-19T10:11:27.936Z,2052.00
2023-06-19T10:12:27.888Z,2023.00
2023-06-19T10:13:27.953Z,2029.00
2023-06-19T10:14:27.920Z,2105.00
2023-06-19T10:15:27.896Z,2220.00
2023-06-19T10:16:29.935Z,2337.00
2023-06-19T10:17:27.855Z,2445.00
2023-06-19T10:18:27.853Z,2574.00
2023-06-19T10:19:27.824Z,2621.00
2023-06-19T10:20:27.865Z,2704.00
2023-06-19T10:21:27.820Z,2838.00
2023-06-19T10:22:27.834Z,2934.00
2023-06-19T10:23:27.787Z,2983.00
2023-06-19T10:24:27.832Z,3009.00
2023-06-19T10:25:27.759Z,3208.00
2023-06-19T10:26:27.753Z,2947.00
2023-06-19T10:27:27.839Z,2920.00
2023-06-19T10:28:27.772Z,2899.00
2023-06-19T10:29:27.715Z,2929.00
2023-06-19T10:30:27.800Z,2693.00
2023-06-19T10:31:27.694Z,2652.00
2023-06-19T10:32:27.705Z,2721.00
2023-06-19T10:33:27.731Z,2781.00
2023-06-19T10:34:27.715Z,2921.00
2023-06-19T10:35:27.675Z,3077.00
2023-06-19T10:36:27.820Z,3221.00
2023-06-19T10:37:27.638Z,3354.00
2023-06-19T10:38:27.647Z,3456.00
2023-06-19T10:39:27.630Z,3606.00
2023-06-19T10:40:27.697Z,3784.00
2023-06-19T10:41:27.702Z,3963.00
2023-06-19T10:42:27.866Z,4103.00
2023-06-19T10:43:27.719Z,3897.00
2023-06-19T10:44:27.590Z,4434.00
2023-06-19T10:45:27.669Z,4328.00
2023-06-19T10:46:27.735Z,4821.00
2023-06-19T10:47:27.590Z,4353.00
2023-06-19T10:48:27.558Z,3983.00
2023-06-19T10:49:27.542Z,3944.00
2023-06-19T10:50:27.531Z,3973.00
2023-06-19T10:51:27.597Z,3887.00
2023-06-19T10:52:27.620Z,3951.00
2023-06-19T10:53:27.694Z,3963.00
2023-06-19T10:54:27.545Z,3862.00
2023-06-19T10:55:27.483Z,3706.00
2023-06-19T10:56:27.419Z,3542.00
2023-06-19T10:57:27.454Z,3416.00
2023-06-19T10:58:27.406Z,3331.00
2023-06-19T10:59:27.511Z,3312.00
2023-06-19T11:00:27.417Z,3326.00
2023-06-19T11:01:27.491Z,3474.00
2023-06-19T11:02:27.472Z,3497.00
2023-06-19T11:03:27.402Z,3479.00
2023-06-19T11:04:27.362Z,3453.00
2023-06-19T11:05:27.337Z,3356.00
2023-06-19T11:06:27.326Z,3034.00
2023-06-19T11:07:27.307Z,3900.00
2023-06-19T11:08:27.321Z,3253.00
2023-06-19T11:09:27.308Z,2964.00
2023-06-19T11:10:27.300Z,2678.00
2023-06-19T11:11:27.261Z,2490.00
2023-06-19T11:12:27.250Z,2355.00
2023-06-19T11:13:27.252Z,2329.00
2023-06-19T11:14:27.262Z,2296.00
2023-06-19T11:15:27.223Z,2229.00
2023-06-19T11:16:27.213Z,2174.00
2023-06-19T11:17:27.216Z,2114.00
2023-06-19T11:18:27.228Z,2082.00
2023-06-19T11:19:27.181Z,2061.00
2023-06-19T11:20:27.314Z,2052.00
2023-06-19T11:21:27.178Z,2111.00
2023-06-19T11:22:27.136Z,2172.00
2023-06-19T11:23:27.138Z,2258.00
2023-06-19T11:24:27.181Z,2313.00
2023-06-19T11:25:27.182Z,2326.00
2023-06-19T11:26:27.103Z,2342.00
2023-06-19T11:27:27.093Z,2329.00
2023-06-19T11:28:27.098Z,2341.00
2023-06-19T11:29:27.137Z,2342.00
2023-06-19T11:30:27.183Z,2373.00
2023-06-19T11:31:27.088Z,2416.00
2023-06-19T11:32:27.827Z,2499.00
2023-06-19T11:33:27.058Z,2566.00
2023-06-19T11:34:27.020Z,2702.00
2023-06-19T11:35:27.051Z,2830.00
2023-06-19T11:36:27.011Z,2932.00
2023-06-19T11:37:26.988Z,2974.00
2023-06-19T11:38:26.973Z,2993.00
2023-06-19T11:39:26.965Z,3077.00
2023-06-19T11:40:27.253Z,3351.00
2023-06-19T11:41:26.945Z,3380.00
2023-06-19T11:42:26.958Z,3368.00
2023-06-19T11:43:26.920Z,3406.00
2023-06-19T11:44:26.912Z,3503.00
2023-06-19T11:45:27.058Z,3750.00
2023-06-19T11:46:26.952Z,3957.00
2023-06-19T11:47:26.912Z,4208.00
2023-06-19T11:48:26.873Z,4963.00
2023-06-19T11:49:26.846Z,4858.00
2023-06-19T11:50:27.113Z,3869.00
2023-06-19T11:51:26.817Z,6096.00
2023-06-19T11:52:26.838Z,5826.00
2023-06-19T11:53:26.831Z,5301.00
2023-06-19T11:54:26.831Z,5296.00
2023-06-19T11:55:26.852Z,5443.00
2023-06-19T11:56:26.814Z,5018.00
2023-06-19T11:57:26.760Z,5732.00
2023-06-19T11:58:26.769Z,5277.00
2023-06-19T11:59:26.753Z,5312.00
2023-06-19T12:00:26.837Z,4831.00
2023-06-19T12:01:26.782Z,4680.00
2023-06-19T12:02:26.792Z,4819.00
2023-06-19T12:03:26.835Z,4782.00
2023-06-19T12:04:26.910Z,4748.00
2023-06-19T12:05:26.695Z,5015.00
2023-06-19T12:06:26.721Z,4848.00
2023-06-19T12:07:26.668Z,5294.00
2023-06-19T12:08:26.678Z,5290.00
2023-06-19T12:09:26.633Z,5360.00
2023-06-19T12:10:26.760Z,5504.00
2023-06-19T12:11:26.643Z,5675.00
2023-06-19T12:12:26.613Z,5857.00
2023-06-19T12:13:26.601Z,6122.00
2023-06-19T12:14:26.633Z,6142.00
2023-06-19T12:15:26.577Z,6060.00
2023-06-19T12:16:26.658Z,6212.00
2023-06-19T12:17:26.582Z,6185.00
2023-06-19T12:18:26.543Z,6508.00
2023-06-19T12:19:26.541Z,6827.00
2023-06-19T12:20:27.031Z,6853.00
2023-06-19T12:21:35.017Z,6796.00
2023-06-19T12:22:26.568Z,7853.00
2023-06-19T12:23:26.522Z,6470.00
2023-06-19T12:24:26.571Z,8098.00
2023-06-19T12:25:26.480Z,9281.00
2023-06-19T12:26:26.489Z,7836.00
2023-06-19T12:27:26.480Z,10782.00
2023-06-19T12:28:27.597Z,10455.00
2023-06-19T12:29:26.752Z,12092.00
2023-06-19T12:30:26.887Z,6949.00
2023-06-19T12:31:26.473Z,6754.00
2023-06-19T12:32:26.493Z,7059.00
2023-06-19T12:33:26.397Z,8267.00
2023-06-19T12:34:31.250Z,7950.00
2023-06-19T12:35:26.405Z,5050.00
2023-06-19T12:36:26.369Z,7461.00
2023-06-19T12:37:26.457Z,5677.00
2023-06-19T12:38:26.363Z,6806.00
2023-06-19T12:39:26.360Z,6964.00
2023-06-19T12:40:26.725Z,6865.00
2023-06-19T12:41:26.295Z,6385.00
2023-06-19T12:42:26.293Z,7091.00
2023-06-19T12:43:26.305Z,6534.00
2023-06-19T12:44:26.257Z,6415.00
2023-06-19T12:45:26.260Z,6504.00
2023-06-19T12:46:26.304Z,7009.00
2023-06-19T12:47:26.320Z,7027.00
2023-06-19T12:48:26.277Z,7115.00
2023-06-19T12:49:26.230Z,6626.00
2023-06-19T12:50:26.442Z,6851.00
2023-06-19T12:51:26.414Z,8466.00
2023-06-19T12:52:26.199Z,5094.00
2023-06-19T12:53:26.208Z,7801.00
2023-06-19T12:54:26.151Z,10368.00
2023-06-19T12:55:26.161Z,5214.00
2023-06-19T12:56:26.139Z,5422.00
2023-06-19T12:57:26.169Z,8466.00
2023-06-19T12:58:26.127Z,5469.00
2023-06-19T12:59:26.148Z,5573.00
2023-06-19T13:00:26.307Z,6615.00
2023-06-19T13:01:26.105Z,9466.00
2023-06-19T13:02:26.245Z,6917.00
2023-06-19T13:03:26.255Z,5272.00
2023-06-19T13:04:26.153Z,4686.00
2023-06-19T13:05:26.132Z,7845.00
2023-06-19T13:06:26.117Z,5441.00
2023-06-19T13:07:26.055Z,3491.00
2023-06-19T13:08:26.087Z,9796.00
2023-06-19T13:09:26.018Z,8187.00
2023-06-19T13:10:26.150Z,4146.00
2023-06-19T13:11:26.012Z,8323.00
2023-06-19T13:12:25.972Z,5499.00
2023-06-19T13:13:25.987Z,7823.00
2023-06-19T13:14:25.980Z,8080.00
2023-06-19T13:15:25.948Z,7601.00
2023-06-19T13:16:41.181Z,7572.00
2023-06-19T13:17:25.981Z,8279.00
2023-06-19T13:18:25.942Z,7837.00
2023-06-19T13:19:25.896Z,8513.00
2023-06-19T13:20:26.063Z,9503.00
2023-06-19T13:21:25.880Z,7573.00
2023-06-19T13:22:25.891Z,2293.00
2023-06-19T13:23:25.876Z,6879.00
2023-06-19T13:24:25.888Z,12018.00
2023-06-19T13:25:25.905Z,5721.00
2023-06-19T13:26:25.863Z,5901.00
2023-06-19T13:27:25.836Z,6672.00
2023-06-19T13:28:25.834Z,7252.00
2023-06-19T13:29:25.846Z,8446.00
2023-06-19T13:30:26.035Z,7685.00
2023-06-19T13:31:25.794Z,5410.00
2023-06-19T13:32:25.799Z,7560.00
2023-06-19T13:33:25.781Z,6278.00
2023-06-19T13:34:25.773Z,6647.00
2023-06-19T13:35:25.762Z,6115.00
2023-06-19T13:36:25.733Z,5290.00
2023-06-19T13:37:26.333Z,9068.00
2023-06-19T13:38:25.774Z,6347.00
2023-06-19T13:39:26.409Z,5302.00
2023-06-19T13:40:25.956Z,7331.00
2023-06-19T13:41:25.754Z,3762.00
2023-06-19T13:42:25.673Z,8192.00
2023-06-19T13:43:25.705Z,8436.00
2023-06-19T13:44:25.679Z,7476.00
2023-06-19T13:45:25.644Z,7392.00
2023-06-19T13:46:25.708Z,7910.00
2023-06-19T13:47:25.679Z,6814.00
2023-06-19T13:48:25.660Z,8502.00
2023-06-19T13:49:25.610Z,6568.00
2023-06-19T13:50:25.829Z,8932.00
2023-06-19T13:51:25.637Z,6922.00
2023-06-19T13:52:25.567Z,8085.00
2023-06-19T13:53:25.588Z,5689.00
2023-06-19T13:54:25.549Z,6826.00
2023-06-19T13:55:25.535Z,4702.00
2023-06-19T13:56:25.536Z,5293.00
2023-06-19T13:57:25.515Z,4670.00
2023-06-19T13:58:25.557Z,4442.00
2023-06-19T13:59:25.513Z,4490.00
2023-06-19T14:00:25.810Z,4025.00
2023-06-19T14:01:25.500Z,4746.00
2023-06-19T14:02:25.540Z,5487.00
2023-06-19T14:03:25.630Z,3173.00
2023-06-19T14:04:25.490Z,5799.00
2023-06-19T14:05:25.459Z,13943.00
2023-06-19T14:06:25.426Z,13537.00
2023-06-19T14:07:25.425Z,15000.00
2023-06-19T14:08:25.407Z,11563.00
2023-06-19T14:09:25.425Z,14379.00
2023-06-19T14:10:25.695Z,5539.00
2023-06-19T14:11:25.360Z,2592.00
2023-06-19T14:12:25.362Z,9279.00
2023-06-19T14:13:25.353Z,13367.00
2023-06-19T14:14:25.389Z,14009.00
2023-06-19T14:15:25.555Z,13755.00
2023-06-19T14:16:25.412Z,8558.00
2023-06-19T14:17:25.339Z,10229.00
2023-06-19T14:18:25.320Z,10561.00
2023-06-19T14:19:25.322Z,10960.00
2023-06-19T14:20:25.588Z,9280.00
2023-06-19T14:21:25.401Z,14278.00
2023-06-19T14:22:25.359Z,16135.00
2023-06-19T14:23:25.295Z,8438.00
2023-06-19T14:24:25.280Z,16960.00
2023-06-19T14:25:25.246Z,14630.00
2023-06-19T14:26:25.220Z,10565.00
2023-06-19T14:27:25.193Z,6571.00
2023-06-19T14:28:25.229Z,8313.00
2023-06-19T14:29:25.258Z,7463.00
2023-06-19T14:30:25.509Z,6508.00
2023-06-19T14:31:25.146Z,5034.00
2023-06-19T14:32:25.310Z,7837.00
2023-06-19T14:33:25.161Z,7781.00
2023-06-19T14:34:25.141Z,3477.00
2023-06-19T14:35:25.135Z,6265.00
2023-06-19T14:36:25.158Z,7515.00
2023-06-19T14:37:25.115Z,11995.00
2023-06-19T14:38:25.100Z,6750.00
2023-06-19T14:39:25.065Z,13258.00
2023-06-19T14:40:25.518Z,15191.00
2023-06-19T14:41:25.054Z,13245.00
2023-06-19T14:42:25.080Z,14936.00
2023-06-19T14:43:25.024Z,15312.00
2023-06-19T14:44:25.075Z,17630.00
2023-06-19T14:45:25.030Z,20208.00
2023-06-19T14:46:38.129Z,19601.00
2023-06-19T14:47:25.048Z,20033.00
2023-06-19T14:48:25.005Z,21903.00
2023-06-19T14:49:24.982Z,27712.00
2023-06-19T14:50:25.385Z,7403.00
2023-06-19T14:51:24.944Z,24175.00
2023-06-19T14:52:24.926Z,29303.00
2023-06-19T14:53:24.911Z,35047.00
2023-06-19T14:54:24.920Z,14666.00
2023-06-19T14:55:24.963Z,21867.00
2023-06-19T14:56:25.001Z,36769.00
2023-06-19T14:57:24.886Z,27276.00
2023-06-19T14:58:24.895Z,30130.00
2023-06-19T14:59:24.876Z,32578.00
2023-06-19T15:00:25.153Z,74876.00
2023-06-19T15:01:24.949Z,26124.00
2023-06-19T15:02:24.880Z,72053.00
2023-06-19T15:03:24.958Z,72163.00
2023-06-19T15:04:24.889Z,36852.00
2023-06-19T15:05:24.837Z,27772.00
2023-06-19T15:06:24.922Z,10727.00
2023-06-19T15:07:25.773Z,7147.00
2023-06-19T15:08:24.813Z,6363.00
2023-06-19T15:09:24.775Z,4054.00
2023-06-19T15:10:25.003Z,4233.00
2023-06-19T15:11:24.766Z,5725.00
2023-06-19T15:12:24.783Z,6728.00
2023-06-19T15:13:24.755Z,3310.00
2023-06-19T15:14:24.740Z,15294.00
2023-06-19T15:15:24.707Z,16130.00
2023-06-19T15:16:24.714Z,18472.00
2023-06-19T15:17:24.762Z,26441.00
2023-06-19T15:18:24.880Z,6589.00
2023-06-19T15:19:24.735Z,20183.00
2023-06-19T15:20:24.943Z,18913.00
2023-06-19T15:21:24.648Z,5998.00
2023-06-19T15:22:24.725Z,4031.00
2023-06-19T15:23:24.654Z,1739.00
2023-06-19T15:24:24.729Z,9048.00
2023-06-19T15:25:24.679Z,7921.00
2023-06-19T15:26:24.668Z,7050.00
2023-06-19T15:27:24.610Z,10391.00
2023-06-19T15:28:24.620Z,12161.00
2023-06-19T15:29:24.582Z,4777.00
2023-06-19T15:30:24.800Z,4191.00
2023-06-19T15:31:24.960Z,18420.00
2023-06-19T15:32:24.593Z,19754.00
2023-06-19T15:33:24.659Z,15607.00
2023-06-19T15:34:24.569Z,26927.00
2023-06-19T15:35:24.619Z,17766.00
2023-06-19T15:36:24.670Z,24148.00
2023-06-19T15:37:24.530Z,15864.00
2023-06-19T15:38:24.507Z,20771.00
2023-06-19T15:39:24.661Z,14114.00
2023-06-19T15:40:24.670Z,4925.00
2023-06-19T15:41:24.606Z,6340.00
2023-06-19T15:42:24.971Z,5798.00
2023-06-19T15:43:25.406Z,4133.00
2023-06-19T15:44:24.487Z,3989.00
2023-06-19T15:45:24.397Z,3301.00
2023-06-19T15:46:24.453Z,5283.00
2023-06-19T15:47:24.435Z,10036.00
2023-06-19T15:48:24.414Z,8132.00
2023-06-19T15:49:24.368Z,8965.00
2023-06-19T15:50:24.602Z,8427.00
2023-06-19T15:51:24.431Z,5390.00
2023-06-19T15:52:24.421Z,15984.00
2023-06-19T15:53:24.414Z,15929.00
2023-06-19T15:54:24.332Z,10643.00
2023-06-19T15:55:24.336Z,4589.00
2023-06-19T15:56:24.423Z,8094.00
2023-06-19T15:57:24.278Z,14899.00
2023-06-19T15:58:24.282Z,22263.00
2023-06-19T15:59:24.276Z,15388.00
2023-06-19T16:00:24.483Z,7910.00
2023-06-19T16:01:24.388Z,6987.00
2023-06-19T16:02:24.385Z,5992.00
2023-06-19T16:03:24.283Z,6172.00
2023-06-19T16:04:24.826Z,4591.00
2023-06-19T16:05:24.312Z,8283.00
2023-06-19T16:06:24.329Z,5473.00
2023-06-19T16:07:24.216Z,6753.00
2023-06-19T16:08:24.225Z,6787.00
2023-06-19T16:09:26.093Z,8274.00
2023-06-19T16:10:24.640Z,9304.00
2023-06-19T16:11:24.169Z,8689.00